sensor_id;sensor_type;location;lat;lon;timestamp;P1;durP1;ratioP1;P2;durP2;ratioP2
59416;SDS011;45222;52.458;20.914;2024-01-11T00:00:20;54.90;;;17.20;;
59416;SDS011;45222;52.458;20.914;2024-01-11T00:04:25;46.40;;;15.30;;
59416;SDS011;45222;52.458;20.914;2024-01-11T00:08:11;45.70;;;16.40;;
59416;SDS011;45222;52.458;20.914;2024-01-11T00:11:56;58.00;;;18.60;;
59416;SDS011;45222;52.458;20.914;2024-01-11T00:15:42;67.60;;;18.80;;
59416;SDS011;45222;52.458;20.914;2024-01-11T00:19:27;46.00;;;16.60;;
59416;SDS011;45222;52.458;20.914;2024-01-11T00:23:13;52.70;;;20.20;;
59416;SDS011;45222;52.458;20.914;2024-01-11T00:26:58;65.00;;;21.20;;
59416;SDS011;45222;52.458;20.914;2024-01-11T00:30:44;91.60;;;23.50;;
59416;SDS011;45222;52.458;20.914;2024-01-11T00:34:29;65.00;;;20.80;;
59416;SDS011;45222;52.458;20.914;2024-01-11T00:38:14;47.70;;;14.00;;
59416;SDS011;45222;52.458;20.914;2024-01-11T00:41:59;62.30;;;20.20;;
59416;SDS011;45222;52.458;20.914;2024-01-11T00:45:45;41.80;;;14.80;;
59416;SDS011;45222;52.458;20.914;2024-01-11T00:49:30;59.90;;;18.40;;
59416;SDS011;45222;52.458;20.914;2024-01-11T00:53:16;61.60;;;19.00;;
59416;SDS011;45222;52.458;20.914;2024-01-11T00:57:01;46.80;;;14.20;;
59416;SDS011;45222;52.458;20.914;2024-01-11T01:00:47;60.00;;;18.80;;
59416;SDS011;45222;52.458;20.914;2024-01-11T01:04:33;88.40;;;22.20;;
59416;SDS011;45222;52.458;20.914;2024-01-11T01:08:21;78.70;;;22.40;;
59416;SDS011;45222;52.458;20.914;2024-01-11T01:12:07;74.00;;;20.60;;
59416;SDS011;45222;52.458;20.914;2024-01-11T01:15:52;54.60;;;18.00;;
59416;SDS011;45222;52.458;20.914;2024-01-11T01:19:37;49.20;;;15.50;;
59416;SDS011;45222;52.458;20.914;2024-01-11T01:23:22;65.30;;;18.60;;
59416;SDS011;45222;52.458;20.914;2024-01-11T01:27:08;60.40;;;18.30;;
59416;SDS011;45222;52.458;20.914;2024-01-11T01:30:53;57.30;;;18.80;;
59416;SDS011;45222;52.458;20.914;2024-01-11T01:34:38;50.40;;;16.70;;
59416;SDS011;45222;52.458;20.914;2024-01-11T01:38:23;76.00;;;22.70;;
59416;SDS011;45222;52.458;20.914;2024-01-11T01:42:09;69.30;;;16.40;;
59416;SDS011;45222;52.458;20.914;2024-01-11T01:45:54;61.30;;;17.60;;
59416;SDS011;45222;52.458;20.914;2024-01-11T01:49:39;106.50;;;55.20;;
59416;SDS011;45222;52.458;20.914;2024-01-11T01:53:27;62.60;;;20.50;;
59416;SDS011;45222;52.458;20.914;2024-01-11T01:57:13;55.10;;;18.70;;
59416;SDS011;45222;52.458;20.914;2024-01-11T02:01:00;56.80;;;17.50;;
59416;SDS011;45222;52.458;20.914;2024-01-11T02:04:45;53.80;;;15.60;;
59416;SDS011;45222;52.458;20.914;2024-01-11T02:08:32;62.30;;;19.10;;
59416;SDS011;45222;52.458;20.914;2024-01-11T02:12:19;88.70;;;24.40;;
59416;SDS011;45222;52.458;20.914;2024-01-11T02:16:06;94.90;;;24.20;;
59416;SDS011;45222;52.458;20.914;2024-01-11T02:19:51;87.30;;;49.80;;
59416;SDS011;45222;52.458;20.914;2024-01-11T02:23:39;74.80;;;43.80;;
59416;SDS011;45222;52.458;20.914;2024-01-11T02:27:29;36.20;;;12.00;;
59416;SDS011;45222;52.458;20.914;2024-01-11T02:31:15;38.70;;;13.80;;
59416;SDS011;45222;52.458;20.914;2024-01-11T02:35:00;38.30;;;13.80;;
59416;SDS011;45222;52.458;20.914;2024-01-11T02:38:47;39.60;;;16.80;;
59416;SDS011;45222;52.458;20.914;2024-01-11T02:42:34;38.70;;;12.90;;
59416;SDS011;45222;52.458;20.914;2024-01-11T02:46:20;39.90;;;13.50;;
59416;SDS011;45222;52.458;20.914;2024-01-11T02:50:07;36.10;;;11.90;;
59416;SDS011;45222;52.458;20.914;2024-01-11T02:53:52;29.30;;;10.30;;
59416;SDS011;45222;52.458;20.914;2024-01-11T02:57:38;51.90;;;14.90;;
59416;SDS011;45222;52.458;20.914;2024-01-11T03:01:23;63.90;;;17.00;;
59416;SDS011;45222;52.458;20.914;2024-01-11T03:05:08;57.30;;;16.20;;
59416;SDS011;45222;52.458;20.914;2024-01-11T03:08:54;51.60;;;15.40;;
59416;SDS011;45222;52.458;20.914;2024-01-11T03:12:40;37.50;;;13.10;;
59416;SDS011;45222;52.458;20.914;2024-01-11T03:16:25;34.20;;;12.30;;
59416;SDS011;45222;52.458;20.914;2024-01-11T03:20:11;36.80;;;12.50;;
59416;SDS011;45222;52.458;20.914;2024-01-11T03:23:59;36.80;;;12.20;;
59416;SDS011;45222;52.458;20.914;2024-01-11T03:27:45;36.70;;;13.00;;
59416;SDS011;45222;52.458;20.914;2024-01-11T03:31:31;29.50;;;9.50;;
59416;SDS011;45222;52.458;20.914;2024-01-11T03:35:17;35.50;;;11.80;;
59416;SDS011;45222;52.458;20.914;2024-01-11T03:39:03;46.00;;;14.60;;
59416;SDS011;45222;52.458;20.914;2024-01-11T03:42:48;31.50;;;11.10;;
59416;SDS011;45222;52.458;20.914;2024-01-11T03:46:33;53.90;;;31.90;;
59416;SDS011;45222;52.458;20.914;2024-01-11T03:50:18;30.80;;;10.70;;
59416;SDS011;45222;52.458;20.914;2024-01-11T03:54:04;31.20;;;10.00;;
59416;SDS011;45222;52.458;20.914;2024-01-11T03:57:49;31.00;;;10.20;;
59416;SDS011;45222;52.458;20.914;2024-01-11T04:01:39;33.70;;;10.50;;
59416;SDS011;45222;52.458;20.914;2024-01-11T04:05:24;23.70;;;7.60;;
59416;SDS011;45222;52.458;20.914;2024-01-11T04:09:10;31.60;;;10.70;;
59416;SDS011;45222;52.458;20.914;2024-01-11T04:12:55;27.00;;;8.90;;
59416;SDS011;45222;52.458;20.914;2024-01-11T04:16:40;39.60;;;10.90;;
59416;SDS011;45222;52.458;20.914;2024-01-11T04:20:26;31.40;;;10.00;;
59416;SDS011;45222;52.458;20.914;2024-01-11T04:24:12;25.50;;;8.40;;
59416;SDS011;45222;52.458;20.914;2024-01-11T04:27:57;31.50;;;9.40;;
59416;SDS011;45222;52.458;20.914;2024-01-11T04:31:42;27.50;;;9.90;;
59416;SDS011;45222;52.458;20.914;2024-01-11T04:35:27;22.80;;;8.20;;
59416;SDS011;45222;52.458;20.914;2024-01-11T04:39:13;27.40;;;8.90;;
59416;SDS011;45222;52.458;20.914;2024-01-11T04:42:58;42.10;;;10.60;;
59416;SDS011;45222;52.458;20.914;2024-01-11T04:46:44;35.40;;;11.50;;
59416;SDS011;45222;52.458;20.914;2024-01-11T04:50:29;32.70;;;10.90;;
59416;SDS011;45222;52.458;20.914;2024-01-11T04:54:14;30.70;;;11.30;;
59416;SDS011;45222;52.458;20.914;2024-01-11T04:58:00;34.20;;;9.50;;
59416;SDS011;45222;52.458;20.914;2024-01-11T05:01:45;30.50;;;9.80;;
59416;SDS011;45222;52.458;20.914;2024-01-11T05:05:31;37.50;;;12.40;;
59416;SDS011;45222;52.458;20.914;2024-01-11T05:09:16;38.30;;;10.90;;
59416;SDS011;45222;52.458;20.914;2024-01-11T05:13:01;31.50;;;12.00;;
59416;SDS011;45222;52.458;20.914;2024-01-11T05:16:47;41.90;;;14.60;;
59416;SDS011;45222;52.458;20.914;2024-01-11T05:20:32;44.50;;;12.00;;
59416;SDS011;45222;52.458;20.914;2024-01-11T05:24:18;29.00;;;10.30;;
59416;SDS011;45222;52.458;20.914;2024-01-11T05:28:03;34.10;;;11.40;;
59416;SDS011;45222;52.458;20.914;2024-01-11T05:31:49;27.40;;;10.40;;
59416;SDS011;45222;52.458;20.914;2024-01-11T05:35:34;34.00;;;10.70;;
59416;SDS011;45222;52.458;20.914;2024-01-11T05:39:19;55.10;;;32.80;;
59416;SDS011;45222;52.458;20.914;2024-01-11T05:43:04;30.80;;;11.60;;
59416;SDS011;45222;52.458;20.914;2024-01-11T05:46:49;36.80;;;13.10;;
59416;SDS011;45222;52.458;20.914;2024-01-11T05:50:34;27.30;;;10.20;;
59416;SDS011;45222;52.458;20.914;2024-01-11T05:54:20;30.60;;;9.50;;
59416;SDS011;45222;52.458;20.914;2024-01-11T05:58:05;31.40;;;10.00;;
59416;SDS011;45222;52.458;20.914;2024-01-11T06:01:50;30.90;;;11.20;;
59416;SDS011;45222;52.458;20.914;2024-01-11T06:05:35;27.00;;;8.90;;
59416;SDS011;45222;52.458;20.914;2024-01-11T06:09:21;33.50;;;11.50;;
59416;SDS011;45222;52.458;20.914;2024-01-11T06:13:06;33.50;;;10.30;;
59416;SDS011;45222;52.458;20.914;2024-01-11T06:16:53;38.30;;;12.50;;
59416;SDS011;45222;52.458;20.914;2024-01-11T06:20:38;38.70;;;11.70;;
59416;SDS011;45222;52.458;20.914;2024-01-11T06:24:23;38.20;;;11.10;;
59416;SDS011;45222;52.458;20.914;2024-01-11T06:28:08;49.50;;;29.70;;
59416;SDS011;45222;52.458;20.914;2024-01-11T06:31:54;44.30;;;13.80;;
59416;SDS011;45222;52.458;20.914;2024-01-11T06:35:39;36.10;;;12.70;;
59416;SDS011;45222;52.458;20.914;2024-01-11T06:39:24;38.20;;;12.70;;
59416;SDS011;45222;52.458;20.914;2024-01-11T06:43:10;35.10;;;11.30;;
59416;SDS011;45222;52.458;20.914;2024-01-11T06:46:55;33.20;;;10.50;;
59416;SDS011;45222;52.458;20.914;2024-01-11T06:50:40;46.30;;;28.40;;
59416;SDS011;45222;52.458;20.914;2024-01-11T06:54:27;24.50;;;8.40;;
59416;SDS011;45222;52.458;20.914;2024-01-11T06:58:15;37.50;;;11.30;;
59416;SDS011;45222;52.458;20.914;2024-01-11T07:02:01;50.40;;;28.60;;
59416;SDS011;45222;52.458;20.914;2024-01-11T07:05:46;36.20;;;10.40;;
59416;SDS011;45222;52.458;20.914;2024-01-11T07:09:31;25.80;;;9.50;;
59416;SDS011;45222;52.458;20.914;2024-01-11T07:13:16;25.70;;;8.60;;
59416;SDS011;45222;52.458;20.914;2024-01-11T07:17:03;29.80;;;10.60;;
59416;SDS011;45222;52.458;20.914;2024-01-11T07:20:49;31.30;;;9.50;;
59416;SDS011;45222;52.458;20.914;2024-01-11T07:24:35;24.60;;;7.80;;
59416;SDS011;45222;52.458;20.914;2024-01-11T07:28:21;40.40;;;13.10;;
59416;SDS011;45222;52.458;20.914;2024-01-11T07:32:09;34.70;;;12.10;;
59416;SDS011;45222;52.458;20.914;2024-01-11T07:35:54;27.90;;;10.50;;
59416;SDS011;45222;52.458;20.914;2024-01-11T07:39:39;31.10;;;10.80;;
59416;SDS011;45222;52.458;20.914;2024-01-11T07:43:25;24.80;;;9.20;;
59416;SDS011;45222;52.458;20.914;2024-01-11T07:47:12;28.50;;;8.90;;
59416;SDS011;45222;52.458;20.914;2024-01-11T07:50:59;30.70;;;9.50;;
59416;SDS011;45222;52.458;20.914;2024-01-11T07:54:44;35.10;;;10.00;;
59416;SDS011;45222;52.458;20.914;2024-01-11T07:58:30;34.80;;;11.50;;
59416;SDS011;45222;52.458;20.914;2024-01-11T08:02:15;28.30;;;8.90;;
59416;SDS011;45222;52.458;20.914;2024-01-11T08:06:02;33.40;;;10.40;;
59416;SDS011;45222;52.458;20.914;2024-01-11T08:09:55;33.00;;;10.00;;
59416;SDS011;45222;52.458;20.914;2024-01-11T08:13:41;30.60;;;10.30;;
59416;SDS011;45222;52.458;20.914;2024-01-11T08:17:27;30.90;;;10.20;;
59416;SDS011;45222;52.458;20.914;2024-01-11T08:21:13;34.80;;;10.70;;
59416;SDS011;45222;52.458;20.914;2024-01-11T08:24:58;33.30;;;11.00;;
59416;SDS011;45222;52.458;20.914;2024-01-11T08:28:43;31.60;;;10.10;;
59416;SDS011;45222;52.458;20.914;2024-01-11T08:32:28;38.90;;;11.70;;
59416;SDS011;45222;52.458;20.914;2024-01-11T08:36:23;30.40;;;10.20;;
59416;SDS011;45222;52.458;20.914;2024-01-11T08:40:10;25.50;;;9.00;;
59416;SDS011;45222;52.458;20.914;2024-01-11T08:43:56;46.20;;;28.10;;
59416;SDS011;45222;52.458;20.914;2024-01-11T08:47:42;44.40;;;25.10;;
59416;SDS011;45222;52.458;20.914;2024-01-11T08:51:33;33.30;;;9.90;;
59416;SDS011;45222;52.458;20.914;2024-01-11T08:55:18;21.10;;;8.20;;
59416;SDS011;45222;52.458;20.914;2024-01-11T08:59:03;33.20;;;11.60;;
59416;SDS011;45222;52.458;20.914;2024-01-11T09:02:49;35.50;;;21.90;;
59416;SDS011;45222;52.458;20.914;2024-01-11T09:06:35;21.40;;;8.10;;
59416;SDS011;45222;52.458;20.914;2024-01-11T09:10:20;25.60;;;9.90;;
59416;SDS011;45222;52.458;20.914;2024-01-11T09:14:06;27.60;;;9.60;;
59416;SDS011;45222;52.458;20.914;2024-01-11T09:17:54;23.30;;;9.20;;
59416;SDS011;45222;52.458;20.914;2024-01-11T09:21:39;34.80;;;10.00;;
59416;SDS011;45222;52.458;20.914;2024-01-11T09:25:26;39.10;;;24.40;;
59416;SDS011;45222;52.458;20.914;2024-01-11T09:29:11;25.70;;;8.30;;
59416;SDS011;45222;52.458;20.914;2024-01-11T09:32:58;29.40;;;10.20;;
59416;SDS011;45222;52.458;20.914;2024-01-11T09:36:45;24.80;;;9.60;;
59416;SDS011;45222;52.458;20.914;2024-01-11T09:40:37;21.80;;;8.00;;
59416;SDS011;45222;52.458;20.914;2024-01-11T09:44:22;38.50;;;13.50;;
59416;SDS011;45222;52.458;20.914;2024-01-11T09:48:08;37.40;;;11.70;;
59416;SDS011;45222;52.458;20.914;2024-01-11T09:51:55;29.10;;;10.40;;
59416;SDS011;45222;52.458;20.914;2024-01-11T09:55:41;25.30;;;9.60;;
59416;SDS011;45222;52.458;20.914;2024-01-11T09:59:26;34.40;;;10.60;;
59416;SDS011;45222;52.458;20.914;2024-01-11T10:03:12;35.30;;;13.20;;
59416;SDS011;45222;52.458;20.914;2024-01-11T10:06:57;30.20;;;10.70;;
59416;SDS011;45222;52.458;20.914;2024-01-11T10:10:45;42.00;;;12.50;;
59416;SDS011;45222;52.458;20.914;2024-01-11T10:14:31;33.50;;;10.70;;
59416;SDS011;45222;52.458;20.914;2024-01-11T10:18:17;33.60;;;12.50;;
59416;SDS011;45222;52.458;20.914;2024-01-11T10:22:07;45.30;;;13.60;;
59416;SDS011;45222;52.458;20.914;2024-01-11T10:29:41;52.80;;;33.70;;
59416;SDS011;45222;52.458;20.914;2024-01-11T10:33:27;38.50;;;13.40;;
59416;SDS011;45222;52.458;20.914;2024-01-11T10:37:12;40.50;;;12.70;;
59416;SDS011;45222;52.458;20.914;2024-01-11T10:40:59;38.40;;;12.60;;
59416;SDS011;45222;52.458;20.914;2024-01-11T10:44:48;35.50;;;12.30;;
59416;SDS011;45222;52.458;20.914;2024-01-11T10:48:39;42.90;;;14.40;;
59416;SDS011;45222;52.458;20.914;2024-01-11T10:52:27;48.00;;;15.80;;
59416;SDS011;45222;52.458;20.914;2024-01-11T10:56:20;34.80;;;12.30;;
59416;SDS011;45222;52.458;20.914;2024-01-11T11:04:10;29.70;;;10.90;;
59416;SDS011;45222;52.458;20.914;2024-01-11T11:07:57;39.10;;;13.30;;
59416;SDS011;45222;52.458;20.914;2024-01-11T11:11:45;47.80;;;15.90;;
59416;SDS011;45222;52.458;20.914;2024-01-11T11:15:31;38.50;;;13.00;;
59416;SDS011;45222;52.458;20.914;2024-01-11T11:19:17;41.40;;;13.60;;
59416;SDS011;45222;52.458;20.914;2024-01-11T11:23:03;52.10;;;32.50;;
59416;SDS011;45222;52.458;20.914;2024-01-11T11:26:50;32.40;;;12.10;;
59416;SDS011;45222;52.458;20.914;2024-01-11T11:30:37;41.00;;;13.90;;
59416;SDS011;45222;52.458;20.914;2024-01-11T11:38:28;49.50;;;15.80;;
59416;SDS011;45222;52.458;20.914;2024-01-11T11:42:15;46.80;;;16.60;;
59416;SDS011;45222;52.458;20.914;2024-01-11T11:46:01;52.60;;;33.20;;
59416;SDS011;45222;52.458;20.914;2024-01-11T11:49:57;38.20;;;14.60;;
59416;SDS011;45222;52.458;20.914;2024-01-11T11:53:51;46.90;;;16.10;;
59416;SDS011;45222;52.458;20.914;2024-01-11T11:57:37;53.40;;;33.80;;
59416;SDS011;45222;52.458;20.914;2024-01-11T12:01:22;47.10;;;15.10;;
59416;SDS011;45222;52.458;20.914;2024-01-11T12:05:08;55.50;;;16.60;;
59416;SDS011;45222;52.458;20.914;2024-01-11T12:08:53;52.60;;;17.50;;
59416;SDS011;45222;52.458;20.914;2024-01-11T12:12:39;45.90;;;16.90;;
59416;SDS011;45222;52.458;20.914;2024-01-11T12:16:24;48.50;;;18.20;;
59416;SDS011;45222;52.458;20.914;2024-01-11T12:20:11;42.00;;;15.60;;
59416;SDS011;45222;52.458;20.914;2024-01-11T12:23:57;42.50;;;15.10;;
59416;SDS011;45222;52.458;20.914;2024-01-11T12:27:44;39.30;;;15.50;;
59416;SDS011;45222;52.458;20.914;2024-01-11T12:31:30;62.50;;;39.30;;
59416;SDS011;45222;52.458;20.914;2024-01-11T12:35:16;50.80;;;16.00;;
59416;SDS011;45222;52.458;20.914;2024-01-11T12:39:01;46.90;;;17.10;;
59416;SDS011;45222;52.458;20.914;2024-01-11T12:42:50;47.50;;;33.10;;
59416;SDS011;45222;52.458;20.914;2024-01-11T12:46:35;40.40;;;14.40;;
59416;SDS011;45222;52.458;20.914;2024-01-11T12:50:22;39.50;;;15.30;;
59416;SDS011;45222;52.458;20.914;2024-01-11T12:54:10;47.20;;;16.80;;
59416;SDS011;45222;52.458;20.914;2024-01-11T12:58:03;48.10;;;32.30;;
59416;SDS011;45222;52.458;20.914;2024-01-11T13:01:49;47.80;;;33.00;;
59416;SDS011;45222;52.458;20.914;2024-01-11T13:05:36;41.70;;;16.60;;
59416;SDS011;45222;52.458;20.914;2024-01-11T13:09:23;33.70;;;13.30;;
59416;SDS011;45222;52.458;20.914;2024-01-11T13:13:08;33.50;;;12.40;;
59416;SDS011;45222;52.458;20.914;2024-01-11T13:16:53;38.20;;;13.50;;
59416;SDS011;45222;52.458;20.914;2024-01-11T13:20:39;38.60;;;14.00;;
59416;SDS011;45222;52.458;20.914;2024-01-11T13:24:24;35.10;;;25.40;;
59416;SDS011;45222;52.458;20.914;2024-01-11T13:28:10;31.20;;;22.80;;
59416;SDS011;45222;52.458;20.914;2024-01-11T13:31:55;27.10;;;12.90;;
59416;SDS011;45222;52.458;20.914;2024-01-11T13:35:41;20.00;;;9.50;;
59416;SDS011;45222;52.458;20.914;2024-01-11T13:39:27;19.80;;;8.50;;
59416;SDS011;45222;52.458;20.914;2024-01-11T13:43:12;20.20;;;9.00;;
59416;SDS011;45222;52.458;20.914;2024-01-11T13:46:57;22.00;;;9.40;;
59416;SDS011;45222;52.458;20.914;2024-01-11T13:50:42;17.00;;;7.70;;
59416;SDS011;45222;52.458;20.914;2024-01-11T13:54:28;21.00;;;15.80;;
59416;SDS011;45222;52.458;20.914;2024-01-11T13:58:14;21.50;;;9.50;;
59416;SDS011;45222;52.458;20.914;2024-01-11T14:02:00;21.20;;;9.00;;
59416;SDS011;45222;52.458;20.914;2024-01-11T14:05:47;17.90;;;14.20;;
59416;SDS011;45222;52.458;20.914;2024-01-11T14:09:32;17.50;;;8.50;;
59416;SDS011;45222;52.458;20.914;2024-01-11T14:13:17;17.20;;;8.30;;
59416;SDS011;45222;52.458;20.914;2024-01-11T14:17:03;13.40;;;5.90;;
59416;SDS011;45222;52.458;20.914;2024-01-11T14:20:48;16.90;;;13.60;;
59416;SDS011;45222;52.458;20.914;2024-01-11T14:24:33;14.40;;;7.90;;
59416;SDS011;45222;52.458;20.914;2024-01-11T14:28:19;21.70;;;9.50;;
59416;SDS011;45222;52.458;20.914;2024-01-11T14:32:05;21.60;;;17.40;;
59416;SDS011;45222;52.458;20.914;2024-01-11T14:35:52;23.80;;;17.90;;
59416;SDS011;45222;52.458;20.914;2024-01-11T14:39:38;22.30;;;16.90;;
59416;SDS011;45222;52.458;20.914;2024-01-11T14:43:24;21.00;;;10.00;;
59416;SDS011;45222;52.458;20.914;2024-01-11T14:47:11;19.60;;;15.60;;
59416;SDS011;45222;52.458;20.914;2024-01-11T14:50:56;20.60;;;9.40;;
59416;SDS011;45222;52.458;20.914;2024-01-11T14:54:43;20.40;;;9.50;;
59416;SDS011;45222;52.458;20.914;2024-01-11T14:58:29;24.60;;;18.20;;
59416;SDS011;45222;52.458;20.914;2024-01-11T15:02:15;24.90;;;11.40;;
59416;SDS011;45222;52.458;20.914;2024-01-11T15:06:00;21.40;;;9.10;;
59416;SDS011;45222;52.458;20.914;2024-01-11T15:09:48;21.90;;;9.60;;
59416;SDS011;45222;52.458;20.914;2024-01-11T15:13:34;20.80;;;9.20;;
59416;SDS011;45222;52.458;20.914;2024-01-11T15:17:19;30.10;;;19.40;;
59416;SDS011;45222;52.458;20.914;2024-01-11T15:21:05;22.80;;;8.90;;
59416;SDS011;45222;52.458;20.914;2024-01-11T15:24:50;16.50;;;7.60;;
59416;SDS011;45222;52.458;20.914;2024-01-11T15:28:37;24.20;;;10.20;;
59416;SDS011;45222;52.458;20.914;2024-01-11T15:32:22;24.50;;;9.80;;
59416;SDS011;45222;52.458;20.914;2024-01-11T15:36:09;18.60;;;13.50;;
59416;SDS011;45222;52.458;20.914;2024-01-11T15:39:54;16.20;;;7.00;;
59416;SDS011;45222;52.458;20.914;2024-01-11T15:43:39;14.10;;;6.70;;
59416;SDS011;45222;52.458;20.914;2024-01-11T15:47:26;20.00;;;14.40;;
59416;SDS011;45222;52.458;20.914;2024-01-11T15:51:11;16.90;;;14.50;;
59416;SDS011;45222;52.458;20.914;2024-01-11T15:54:58;14.40;;;7.60;;
59416;SDS011;45222;52.458;20.914;2024-01-11T15:58:50;17.10;;;8.60;;
59416;SDS011;45222;52.458;20.914;2024-01-11T16:02:37;16.60;;;9.00;;
59416;SDS011;45222;52.458;20.914;2024-01-11T16:06:24;22.10;;;15.90;;
59416;SDS011;45222;52.458;20.914;2024-01-11T16:10:09;20.00;;;9.50;;
59416;SDS011;45222;52.458;20.914;2024-01-11T16:13:56;21.20;;;15.80;;
59416;SDS011;45222;52.458;20.914;2024-01-11T16:17:45;25.20;;;18.10;;
59416;SDS011;45222;52.458;20.914;2024-01-11T16:21:36;21.70;;;10.40;;
59416;SDS011;45222;52.458;20.914;2024-01-11T16:25:22;22.50;;;9.90;;
59416;SDS011;45222;52.458;20.914;2024-01-11T16:29:08;20.10;;;10.60;;
59416;SDS011;45222;52.458;20.914;2024-01-11T16:32:53;23.50;;;11.50;;
59416;SDS011;45222;52.458;20.914;2024-01-11T16:36:39;19.00;;;8.50;;
59416;SDS011;45222;52.458;20.914;2024-01-11T16:40:27;17.10;;;13.30;;
59416;SDS011;45222;52.458;20.914;2024-01-11T16:44:12;17.30;;;8.50;;
59416;SDS011;45222;52.458;20.914;2024-01-11T16:47:57;14.40;;;6.80;;
59416;SDS011;45222;52.458;20.914;2024-01-11T16:51:43;15.90;;;7.70;;
59416;SDS011;45222;52.458;20.914;2024-01-11T16:55:28;17.50;;;7.60;;
59416;SDS011;45222;52.458;20.914;2024-01-11T16:59:14;16.10;;;13.80;;
59416;SDS011;45222;52.458;20.914;2024-01-11T17:03:01;15.00;;;12.30;;
59416;SDS011;45222;52.458;20.914;2024-01-11T17:06:47;15.50;;;12.90;;
59416;SDS011;45222;52.458;20.914;2024-01-11T17:10:35;15.90;;;8.60;;
59416;SDS011;45222;52.458;20.914;2024-01-11T17:14:23;17.30;;;14.00;;
59416;SDS011;45222;52.458;20.914;2024-01-11T17:18:11;15.90;;;13.40;;
59416;SDS011;45222;52.458;20.914;2024-01-11T17:21:57;17.90;;;7.80;;
59416;SDS011;45222;52.458;20.914;2024-01-11T17:25:44;15.90;;;12.90;;
59416;SDS011;45222;52.458;20.914;2024-01-11T17:29:29;13.30;;;6.80;;
59416;SDS011;45222;52.458;20.914;2024-01-11T17:33:15;13.60;;;6.00;;
59416;SDS011;45222;52.458;20.914;2024-01-11T17:37:01;13.40;;;5.60;;
59416;SDS011;45222;52.458;20.914;2024-01-11T17:40:47;11.60;;;8.50;;
59416;SDS011;45222;52.458;20.914;2024-01-11T17:44:40;11.10;;;7.90;;
59416;SDS011;45222;52.458;20.914;2024-01-11T17:48:35;10.20;;;6.90;;
59416;SDS011;45222;52.458;20.914;2024-01-11T17:52:21;8.00;;;3.70;;
59416;SDS011;45222;52.458;20.914;2024-01-11T17:56:06;11.40;;;7.20;;
59416;SDS011;45222;52.458;20.914;2024-01-11T18:04:53;10.10;;;3.50;;
59416;SDS011;45222;52.458;20.914;2024-01-11T18:08:38;7.30;;;2.50;;
59416;SDS011;45222;52.458;20.914;2024-01-11T18:12:24;6.30;;;2.50;;
59416;SDS011;45222;52.458;20.914;2024-01-11T18:16:11;4.70;;;1.90;;
59416;SDS011;45222;52.458;20.914;2024-01-11T18:19:58;3.90;;;1.70;;
59416;SDS011;45222;52.458;20.914;2024-01-11T18:23:44;5.00;;;1.70;;
59416;SDS011;45222;52.458;20.914;2024-01-11T18:27:30;8.20;;;3.20;;
59416;SDS011;45222;52.458;20.914;2024-01-11T18:31:17;5.00;;;1.90;;
59416;SDS011;45222;52.458;20.914;2024-01-11T18:35:06;6.20;;;2.10;;
59416;SDS011;45222;52.458;20.914;2024-01-11T18:38:53;7.50;;;2.90;;
59416;SDS011;45222;52.458;20.914;2024-01-11T18:42:42;8.20;;;3.00;;
59416;SDS011;45222;52.458;20.914;2024-01-11T18:46:27;6.10;;;1.80;;
59416;SDS011;45222;52.458;20.914;2024-01-11T18:50:12;8.50;;;3.00;;
59416;SDS011;45222;52.458;20.914;2024-01-11T18:53:58;7.60;;;3.10;;
59416;SDS011;45222;52.458;20.914;2024-01-11T18:57:46;6.80;;;2.20;;
59416;SDS011;45222;52.458;20.914;2024-01-11T19:01:31;7.80;;;3.30;;
59416;SDS011;45222;52.458;20.914;2024-01-11T19:05:17;4.00;;;1.60;;
59416;SDS011;45222;52.458;20.914;2024-01-11T19:09:03;7.60;;;3.00;;
59416;SDS011;45222;52.458;20.914;2024-01-11T19:12:52;5.60;;;1.40;;
59416;SDS011;45222;52.458;20.914;2024-01-11T19:16:43;4.30;;;1.60;;
59416;SDS011;45222;52.458;20.914;2024-01-11T19:20:29;8.20;;;3.10;;
59416;SDS011;45222;52.458;20.914;2024-01-11T19:24:15;7.50;;;2.20;;
59416;SDS011;45222;52.458;20.914;2024-01-11T19:28:00;8.10;;;2.50;;
59416;SDS011;45222;52.458;20.914;2024-01-11T19:31:45;3.50;;;1.50;;
59416;SDS011;45222;52.458;20.914;2024-01-11T19:35:31;4.90;;;1.70;;
59416;SDS011;45222;52.458;20.914;2024-01-11T19:39:16;6.10;;;2.10;;
59416;SDS011;45222;52.458;20.914;2024-01-11T19:43:03;11.80;;;3.90;;
59416;SDS011;45222;52.458;20.914;2024-01-11T19:46:51;6.70;;;2.40;;
59416;SDS011;45222;52.458;20.914;2024-01-11T19:50:44;11.30;;;2.20;;
59416;SDS011;45222;52.458;20.914;2024-01-11T19:54:31;8.80;;;3.90;;
59416;SDS011;45222;52.458;20.914;2024-01-11T19:58:17;6.20;;;2.10;;
59416;SDS011;45222;52.458;20.914;2024-01-11T20:02:02;5.30;;;2.00;;
59416;SDS011;45222;52.458;20.914;2024-01-11T20:05:47;6.10;;;1.80;;
59416;SDS011;45222;52.458;20.914;2024-01-11T20:09:33;5.00;;;1.90;;
59416;SDS011;45222;52.458;20.914;2024-01-11T20:13:21;7.70;;;3.40;;
59416;SDS011;45222;52.458;20.914;2024-01-11T20:17:09;3.30;;;1.20;;
59416;SDS011;45222;52.458;20.914;2024-01-11T20:20:56;7.60;;;3.20;;
59416;SDS011;45222;52.458;20.914;2024-01-11T20:24:41;6.20;;;1.60;;
59416;SDS011;45222;52.458;20.914;2024-01-11T20:28:26;9.20;;;3.80;;
59416;SDS011;45222;52.458;20.914;2024-01-11T20:32:11;2.90;;;1.20;;
59416;SDS011;45222;52.458;20.914;2024-01-11T20:35:59;10.00;;;4.30;;
59416;SDS011;45222;52.458;20.914;2024-01-11T20:39:46;5.30;;;1.40;;
59416;SDS011;45222;52.458;20.914;2024-01-11T20:43:31;6.70;;;1.70;;
59416;SDS011;45222;52.458;20.914;2024-01-11T20:47:17;3.00;;;1.30;;
59416;SDS011;45222;52.458;20.914;2024-01-11T20:51:08;10.90;;;4.30;;
59416;SDS011;45222;52.458;20.914;2024-01-11T20:54:56;6.80;;;2.10;;
59416;SDS011;45222;52.458;20.914;2024-01-11T20:58:42;6.00;;;1.70;;
59416;SDS011;45222;52.458;20.914;2024-01-11T21:02:28;5.90;;;1.90;;
59416;SDS011;45222;52.458;20.914;2024-01-11T21:06:15;8.60;;;4.10;;
59416;SDS011;45222;52.458;20.914;2024-01-11T21:10:01;8.80;;;2.20;;
59416;SDS011;45222;52.458;20.914;2024-01-11T21:13:47;12.90;;;2.70;;
59416;SDS011;45222;52.458;20.914;2024-01-11T21:17:33;5.90;;;2.40;;
59416;SDS011;45222;52.458;20.914;2024-01-11T21:21:20;7.40;;;2.80;;
59416;SDS011;45222;52.458;20.914;2024-01-11T21:25:07;10.30;;;3.00;;
59416;SDS011;45222;52.458;20.914;2024-01-11T21:29:06;8.10;;;2.70;;
59416;SDS011;45222;52.458;20.914;2024-01-11T21:32:51;121.50;;;89.60;;
59416;SDS011;45222;52.458;20.914;2024-01-11T21:36:37;13.90;;;5.10;;
59416;SDS011;45222;52.458;20.914;2024-01-11T21:40:23;7.90;;;2.70;;
59416;SDS011;45222;52.458;20.914;2024-01-11T21:44:09;10.90;;;5.20;;
59416;SDS011;45222;52.458;20.914;2024-01-11T21:47:54;6.20;;;2.30;;
59416;SDS011;45222;52.458;20.914;2024-01-11T21:51:40;6.10;;;1.80;;
59416;SDS011;45222;52.458;20.914;2024-01-11T21:55:26;10.80;;;4.50;;
59416;SDS011;45222;52.458;20.914;2024-01-11T21:59:13;6.90;;;2.10;;
59416;SDS011;45222;52.458;20.914;2024-01-11T22:02:59;5.40;;;1.90;;
59416;SDS011;45222;52.458;20.914;2024-01-11T22:06:45;5.00;;;1.80;;
59416;SDS011;45222;52.458;20.914;2024-01-11T22:10:30;8.90;;;2.80;;